Time;durP1;ratioP1;P1;durP2;ratioP2;P2;SDS_P1;SDS_P2;PMS_P1;PMS_P2;Temp;Humidity;BMP_temperature;BMP_pressure;BME280_temperature;BME280_humidity;BME280_pressure;Samples;Min_cycle;Max_cycle;Signal;HPM_P1;HPM_P2
2023/03/29 00:01:46;;;;;;;4.90;3.30;;;8.10;1.00;;;;;;4911218;29;20437;-74
2023/03/29 00:04:12;;;;;;;5.43;3.37;;;8.10;1.00;;;;;;4911647;29;20182;-74
2023/03/29 00:06:38;;;;;;;4.60;3.10;;;8.00;1.00;;;;;;4906171;29;20544;-74
2023/03/29 00:09:04;;;;;;;4.20;3.10;;;8.00;1.00;;;;;;4912426;29;20253;-75
2023/03/29 00:11:30;;;;;;;3.80;2.83;;;8.00;1.00;;;;;;4908600;29;20178;-75
2023/03/29 00:13:56;;;;;;;4.83;2.97;;;8.00;1.00;;;;;;4925266;29;20444;-74
2023/03/29 00:16:22;;;;;;;6.30;3.30;;;7.90;1.00;;;;;;4912555;29;20297;-74
2023/03/29 00:18:48;;;;;;;4.50;3.00;;;7.90;1.00;;;;;;4910285;29;20272;-74
2023/03/29 00:21:13;;;;;;;6.47;3.30;;;7.90;1.00;;;;;;4912307;29;20461;-74
2023/03/29 00:23:39;;;;;;;4.03;2.70;;;7.90;1.00;;;;;;4907876;29;20213;-74
2023/03/29 00:26:06;;;;;;;5.10;3.30;;;7.90;1.00;;;;;;4912312;29;20289;-75
2023/03/29 00:28:31;;;;;;;4.40;2.50;;;8.00;1.00;;;;;;4911021;29;20208;-75
2023/03/29 00:31:08;;;;;;;4.67;2.97;;;8.00;1.00;;;;;;4907538;29;21052;-75
2023/03/29 00:33:34;;;;;;;4.83;2.70;;;8.00;1.00;;;;;;4910842;29;20185;-75
2023/03/29 00:36:00;;;;;;;2.70;2.40;;;8.10;1.00;;;;;;4911034;29;21003;-74
2023/03/29 00:38:26;;;;;;;5.53;2.93;;;8.10;1.00;;;;;;4907801;29;20513;-74
2023/03/29 00:40:52;;;;;;;4.00;3.30;;;8.10;1.00;;;;;;4912203;29;20438;-75
2023/03/29 00:43:17;;;;;;;4.87;3.30;;;8.10;1.00;;;;;;4911884;29;20197;-75
2023/03/29 00:45:43;;;;;;;3.70;2.70;;;8.10;1.00;;;;;;4917819;29;20196;-74
2023/03/29 00:48:14;;;;;;;3.93;2.70;;;8.10;1.00;;;;;;4908210;29;20288;-75
2023/03/29 00:50:42;;;;;;;3.00;2.57;;;8.10;1.00;;;;;;4910077;29;20190;-75
2023/03/29 00:53:11;;;;;;;4.33;2.83;;;8.10;1.00;;;;;;4911881;29;20474;-75
2023/03/29 00:55:57;;;;;;;4.53;2.90;;;8.10;1.00;;;;;;4925343;29;20545;-74
2023/03/29 00:58:30;;;;;;;5.63;3.00;;;8.10;1.00;;;;;;4925606;29;20449;-74
2023/03/29 01:01:09;;;;;;;4.03;2.70;;;8.10;1.00;;;;;;4911055;29;20721;-75
2023/03/29 01:03:45;;;;;;;3.57;2.43;;;8.10;1.00;;;;;;4910549;29;20434;-74
2023/03/29 01:06:15;;;;;;;3.67;3.00;;;8.20;1.00;;;;;;4906535;29;20470;-74
2023/03/29 01:08:47;;;;;;;5.13;2.53;;;8.20;1.00;;;;;;4919150;29;20448;-74
2023/03/29 01:11:29;;;;;;;5.30;2.53;;;8.20;1.00;;;;;;4914311;29;20449;-75
2023/03/29 01:14:01;;;;;;;4.40;2.53;;;8.20;1.00;;;;;;4910679;29;20897;-74
2023/03/29 01:16:29;;;;;;;3.87;2.83;;;8.20;1.00;;;;;;4905220;29;20474;-75
2023/03/29 01:18:57;;;;;;;3.53;2.60;;;8.20;1.00;;;;;;4908114;29;21101;-74
2023/03/29 01:21:50;;;;;;;5.10;3.13;;;8.20;1.00;;;;;;4910259;29;20469;-75
2023/03/29 01:24:53;;;;;;;6.00;2.87;;;8.20;1.00;;;;;;4909060;29;20968;-75
2023/03/29 01:27:46;;;;;;;6.07;3.20;;;8.30;1.00;;;;;;4909053;29;20481;-75
2023/03/29 01:30:17;;;;;;;3.37;2.67;;;8.30;1.00;;;;;;4909009;29;20652;-73
2023/03/29 01:32:55;;;;;;;3.27;2.40;;;8.30;1.00;;;;;;4915504;29;20521;-74
2023/03/29 01:35:23;;;;;;;5.13;2.60;;;8.30;1.00;;;;;;4910576;29;20452;-75
2023/03/29 01:38:00;;;;;;;4.40;2.80;;;8.30;1.00;;;;;;4913522;29;20469;-75
2023/03/29 01:40:27;;;;;;;5.40;2.80;;;8.20;1.00;;;;;;4912890;29;20872;-74
2023/03/29 01:43:01;;;;;;;7.53;3.10;;;8.30;1.00;;;;;;4914029;29;20449;-73
2023/03/29 01:45:53;;;;;;;3.43;2.63;;;8.30;1.00;;;;;;4921426;29;20524;-73
2023/03/29 01:48:41;;;;;;;4.30;2.73;;;8.30;1.00;;;;;;4914521;29;20524;-74
2023/03/29 01:51:16;;;;;;;4.40;2.50;;;8.40;1.00;;;;;;4913484;29;20458;-73
2023/03/29 01:53:48;;;;;;;3.53;2.60;;;8.40;1.00;;;;;;4914051;29;20476;-74
2023/03/29 01:56:18;;;;;;;3.33;2.43;;;8.40;1.00;;;;;;4905742;29;20528;-74
2023/03/29 01:58:48;;;;;;;6.90;2.40;;;8.40;1.00;;;;;;4913124;29;20805;-74
2023/03/29 02:01:17;;;;;;;6.30;2.87;;;8.30;1.00;;;;;;4905047;29;20958;-74
2023/03/29 02:03:48;;;;;;;4.97;2.70;;;8.40;1.00;;;;;;4914174;29;20442;-74
2023/03/29 02:06:17;;;;;;;2.50;2.27;;;8.40;1.00;;;;;;4914306;29;20477;-72
2023/03/29 02:08:44;;;;;;;2.97;2.60;;;8.50;1.00;;;;;;4913101;29;20929;-74
2023/03/29 02:11:10;;;;;;;2.77;2.40;;;8.50;1.00;;;;;;4913809;29;20786;-74
2023/03/29 02:13:36;;;;;;;3.30;2.33;;;8.60;1.00;;;;;;4913398;29;20517;-74
2023/03/29 02:16:11;;;;;;;4.00;2.60;;;8.60;1.00;;;;;;4921753;29;20214;-74
2023/03/29 02:18:38;;;;;;;2.60;2.10;;;8.60;1.00;;;;;;4914004;29;20178;-74
2023/03/29 02:21:05;;;;;;;2.47;2.10;;;8.60;1.00;;;;;;4912261;29;20450;-74
2023/03/29 02:23:37;;;;;;;2.60;1.90;;;8.60;1.00;;;;;;4913815;29;20453;-74
2023/03/29 02:26:05;;;;;;;3.70;2.50;;;8.70;1.00;;;;;;4913696;29;20469;-74
2023/03/29 02:28:32;;;;;;;4.53;2.27;;;8.70;1.00;;;;;;4913623;29;21051;-74
2023/03/29 02:31:35;;;;;;;4.37;2.63;;;8.70;1.00;;;;;;4910636;29;20840;-74
2023/03/29 02:34:22;;;;;;;2.20;2.00;;;8.70;1.00;;;;;;4911554;29;20485;-74
2023/03/29 02:36:55;;;;;;;2.70;2.20;;;8.70;1.00;;;;;;4913633;29;20473;-74
2023/03/29 02:39:24;;;;;;;7.23;2.60;;;8.70;1.00;;;;;;4906639;29;20438;-74
2023/03/29 02:41:50;;;;;;;3.10;2.30;;;8.70;1.00;;;;;;4912264;29;20543;-74
2023/03/29 02:44:28;;;;;;;2.40;2.20;;;8.70;1.00;;;;;;4916225;29;20425;-74
2023/03/29 02:47:00;;;;;;;2.90;2.20;;;8.80;1.00;;;;;;4922103;29;20520;-73
2023/03/29 02:49:26;;;;;;;2.57;2.33;;;8.80;1.00;;;;;;4926398;29;20589;-74
2023/03/29 02:51:56;;;;;;;2.90;2.20;;;8.80;1.00;;;;;;4912567;29;20521;-74
2023/03/29 02:54:24;;;;;;;4.57;2.40;;;8.70;1.00;;;;;;4909599;29;20921;-73
2023/03/29 02:56:59;;;;;;;2.50;2.30;;;8.70;1.00;;;;;;4913061;29;20530;-73
2023/03/29 02:59:25;;;;;;;3.00;2.23;;;8.70;1.00;;;;;;4907534;29;20436;-74
2023/03/29 03:01:52;;;;;;;3.80;2.23;;;9.40;1.00;;;;;;4912263;29;20448;-73
2023/03/29 03:04:19;;;;;;;3.73;2.40;;;8.70;1.00;;;;;;4912883;29;20441;-74
2023/03/29 03:06:46;;;;;;;4.00;2.20;;;8.80;1.00;;;;;;4909567;29;20513;-73
2023/03/29 03:09:12;;;;;;;3.93;2.27;;;8.80;1.00;;;;;;4912525;29;20456;-74
2023/03/29 03:11:38;;;;;;;3.33;2.23;;;8.70;1.00;;;;;;4903981;29;20748;-73
2023/03/29 03:14:04;;;;;;;2.57;2.37;;;8.70;1.00;;;;;;4912209;29;20457;-73
2023/03/29 03:16:30;;;;;;;3.07;2.30;;;8.80;1.00;;;;;;4925815;29;20220;-74
2023/03/29 03:18:56;;;;;;;3.50;2.13;;;8.80;1.00;;;;;;4911252;29;20445;-73
2023/03/29 03:21:22;;;;;;;3.10;1.93;;;8.80;1.00;;;;;;4912508;29;20536;-74
2023/03/29 03:23:48;;;;;;;5.30;2.10;;;8.90;1.00;;;;;;4911544;29;20649;-74
2023/03/29 03:26:15;;;;;;;2.33;2.13;;;8.90;1.00;;;;;;4911401;29;20998;-74
2023/03/29 03:28:41;;;;;;;2.30;2.10;;;8.90;1.00;;;;;;4909823;29;20446;-73
2023/03/29 03:31:06;;;;;;;6.80;4.10;;;8.90;1.00;;;;;;4910328;29;20852;-73
2023/03/29 03:33:32;;;;;;;4.70;3.60;;;8.90;1.00;;;;;;4912671;29;20560;-74
2023/03/29 03:36:05;;;;;;;4.97;2.60;;;8.90;1.00;;;;;;4911433;29;20605;-74
2023/03/29 03:38:33;;;;;;;3.87;2.57;;;8.90;1.00;;;;;;4913189;29;20425;-73
2023/03/29 03:41:00;;;;;;;9.90;2.97;;;8.90;1.00;;;;;;4910503;29;20524;-74
2023/03/29 03:43:27;;;;;;;5.50;2.30;;;8.90;1.00;;;;;;4916385;29;20906;-73
2023/03/29 03:45:52;;;;;;;3.50;2.30;;;9.00;1.00;;;;;;4913929;29;20549;-74
2023/03/29 03:48:18;;;;;;;2.87;2.00;;;8.90;1.00;;;;;;4909318;29;21087;-74
2023/03/29 03:50:48;;;;;;;2.30;1.80;;;9.00;1.00;;;;;;4912628;29;20205;-74
2023/03/29 03:53:14;;;;;;;4.50;2.20;;;9.00;1.00;;;;;;4912113;29;20250;-74
2023/03/29 03:55:39;;;;;;;2.37;2.10;;;9.00;1.00;;;;;;4912242;29;20442;-74
2023/03/29 03:58:06;;;;;;;2.70;1.77;;;9.00;1.00;;;;;;4911821;29;20677;-74
2023/03/29 04:00:32;;;;;;;3.03;2.13;;;9.00;1.00;;;;;;4910713;29;20549;-74
2023/03/29 04:02:58;;;;;;;2.73;1.90;;;8.90;1.00;;;;;;4912400;29;20421;-73
2023/03/29 04:05:24;;;;;;;2.90;2.00;;;8.80;1.00;;;;;;4906862;29;20561;-74
2023/03/29 04:07:49;;;;;;;2.60;2.17;;;8.80;1.00;;;;;;4912065;29;20237;-74
2023/03/29 04:10:16;;;;;;;2.77;2.00;;;8.70;1.00;;;;;;4912147;29;20214;-72
2023/03/29 04:12:41;;;;;;;2.50;2.07;;;8.80;1.00;;;;;;4909833;29;20185;-74
2023/03/29 04:15:09;;;;;;;2.40;1.90;;;8.70;1.00;;;;;;4919869;29;20482;-73
2023/03/29 04:17:34;;;;;;;2.10;2.00;;;8.80;1.00;;;;;;4907646;29;20213;-74
2023/03/29 04:20:04;;;;;;;2.47;2.03;;;8.80;1.00;;;;;;4908464;29;20441;-73
2023/03/29 04:22:30;;;;;;;3.00;2.40;;;8.80;1.00;;;;;;4912677;29;20181;-74
2023/03/29 04:24:55;;;;;;;3.13;2.10;;;8.80;1.00;;;;;;4905001;29;20498;-72
2023/03/29 04:27:21;;;;;;;3.20;2.00;;;8.80;1.00;;;;;;4912835;29;20213;-74
2023/03/29 04:29:47;;;;;;;3.43;2.30;;;8.70;1.00;;;;;;4910732;29;20657;-73
2023/03/29 04:32:13;;;;;;;2.63;2.03;;;8.70;1.00;;;;;;4910712;29;20600;-74
2023/03/29 04:34:38;;;;;;;4.33;2.20;;;8.80;1.00;;;;;;4912288;29;20434;-74
2023/03/29 04:37:09;;;;;;;3.47;2.40;;;8.70;1.00;;;;;;4907911;29;20418;-73
2023/03/29 04:39:36;;;;;;;3.10;2.30;;;8.70;1.00;;;;;;4911699;29;20182;-73
2023/03/29 04:42:02;;;;;;;3.60;2.20;;;8.70;1.00;;;;;;4910455;29;20596;-73
2023/03/29 04:44:27;;;;;;;4.23;2.70;;;8.70;1.00;;;;;;4915067;29;20441;-73
2023/03/29 04:46:53;;;;;;;4.37;2.87;;;8.70;1.00;;;;;;4913843;29;20786;-73
2023/03/29 04:49:18;;;;;;;4.30;2.23;;;8.70;1.00;;;;;;4908498;29;20194;-74
2023/03/29 04:51:44;;;;;;;6.00;2.40;;;8.70;1.00;;;;;;4911397;29;20244;-74
2023/03/29 04:54:10;;;;;;;2.80;2.20;;;8.70;1.00;;;;;;4910700;29;20189;-73
2023/03/29 04:56:35;;;;;;;4.57;2.20;;;8.70;1.00;;;;;;4912504;29;20310;-74
2023/03/29 04:59:01;;;;;;;2.30;2.10;;;8.80;1.00;;;;;;4908926;29;20185;-73
2023/03/29 05:01:27;;;;;;;3.53;2.50;;;8.70;1.00;;;;;;4912720;29;20184;-74
2023/03/29 05:03:53;;;;;;;2.73;2.37;;;8.80;1.00;;;;;;4914747;29;20194;-74
2023/03/29 05:06:18;;;;;;;7.17;2.30;;;8.80;1.00;;;;;;4912696;29;20556;-73
2023/03/29 05:08:44;;;;;;;2.90;2.40;;;8.80;1.00;;;;;;4913748;29;20735;-74
2023/03/29 05:11:10;;;;;;;7.47;2.63;;;8.80;1.00;;;;;;4912654;29;20255;-74
2023/03/29 05:13:36;;;;;;;5.33;2.60;;;8.80;1.00;;;;;;4917362;29;20960;-74
2023/03/29 05:16:03;;;;;;;7.67;3.97;;;8.80;1.00;;;;;;4911969;29;20568;-74
2023/03/29 05:18:29;;;;;;;11.87;5.87;;;8.80;1.00;;;;;;4912237;29;20747;-74
2023/03/29 05:20:56;;;;;;;8.33;3.60;;;8.80;1.00;;;;;;4912842;29;20943;-74
2023/03/29 05:23:22;;;;;;;8.17;4.80;;;8.80;1.00;;;;;;4914037;29;20468;-74
2023/03/29 05:25:48;;;;;;;6.23;3.83;;;8.90;1.00;;;;;;4913426;29;20473;-74
2023/03/29 05:28:14;;;;;;;6.00;3.23;;;8.90;1.00;;;;;;4914184;29;20193;-74
2023/03/29 05:30:41;;;;;;;5.90;2.97;;;8.90;1.00;;;;;;4910279;29;20441;-74
2023/03/29 05:33:07;;;;;;;4.23;3.20;;;9.00;1.00;;;;;;4914337;29;20812;-73
2023/03/29 05:35:34;;;;;;;5.13;2.80;;;9.00;1.00;;;;;;4912135;29;20573;-74
2023/03/29 05:38:00;;;;;;;7.80;2.67;;;9.10;1.00;;;;;;4910382;29;20214;-78
2023/03/29 05:40:26;;;;;;;3.93;2.53;;;9.10;1.00;;;;;;4914519;29;20433;-74
2023/03/29 05:42:52;;;;;;;4.00;2.70;;;9.20;1.00;;;;;;4911001;29;20186;-74
2023/03/29 05:45:19;;;;;;;4.33;2.47;;;9.20;1.00;;;;;;4914047;29;20942;-74
2023/03/29 05:47:45;;;;;;;4.20;2.87;;;9.20;1.00;;;;;;4911435;29;20220;-74
2023/03/29 05:50:10;;;;;;;4.00;2.73;;;9.20;1.00;;;;;;4920475;29;20944;-74
2023/03/29 05:52:36;;;;;;;6.03;2.97;;;9.20;1.00;;;;;;4914270;29;20525;-74
2023/03/29 05:55:06;;;;;;;4.30;2.70;;;9.30;1.00;;;;;;4913151;29;20185;-74
2023/03/29 05:57:36;;;;;;;3.57;2.53;;;9.40;1.00;;;;;;4910074;29;20547;-74
2023/03/29 06:00:18;;;;;;;5.80;3.00;;;9.30;1.00;;;;;;4911672;29;20537;-74
2023/03/29 06:02:44;;;;;;;4.83;3.10;;;9.30;1.00;;;;;;4915017;29;20433;-74
2023/03/29 06:05:09;;;;;;;5.17;2.70;;;9.30;1.00;;;;;;4912099;29;20438;-74
2023/03/29 06:07:37;;;;;;;4.33;2.97;;;9.30;1.00;;;;;;4913802;29;20209;-74
2023/03/29 06:10:03;;;;;;;4.50;3.20;;;9.30;1.00;;;;;;4913241;29;20182;-73
2023/03/29 06:12:29;;;;;;;4.23;2.60;;;9.30;1.00;;;;;;4914726;29;20915;-74
2023/03/29 06:14:57;;;;;;;4.80;2.70;;;9.20;1.00;;;;;;4913432;29;20489;-74
2023/03/29 06:17:22;;;;;;;3.23;2.90;;;9.20;1.00;;;;;;4914595;29;20959;-74
2023/03/29 06:19:48;;;;;;;6.53;3.10;;;9.20;1.00;;;;;;4913904;29;20429;-74
2023/03/29 06:22:13;;;;;;;6.87;3.10;;;9.30;1.00;;;;;;4921457;29;20609;-74
2023/03/29 06:24:39;;;;;;;10.43;2.83;;;9.30;1.00;;;;;;4913553;29;20177;-74
2023/03/29 06:27:05;;;;;;;5.63;3.13;;;9.30;1.00;;;;;;4922550;29;20244;-74
2023/03/29 06:29:30;;;;;;;4.40;3.17;;;9.30;1.00;;;;;;4913503;29;20178;-74
2023/03/29 06:31:56;;;;;;;4.63;2.90;;;9.30;1.00;;;;;;4921810;29;20626;-74
2023/03/29 06:34:21;;;;;;;5.40;3.10;;;9.30;1.00;;;;;;4922670;29;20610;-74
2023/03/29 06:36:49;;;;;;;5.37;3.07;;;9.50;1.00;;;;;;4918970;29;20296;-73
2023/03/29 06:39:15;;;;;;;5.67;3.50;;;9.60;1.00;;;;;;4931528;29;20208;-74
2023/03/29 06:41:40;;;;;;;4.47;3.50;;;9.80;1.00;;;;;;4919035;29;20432;-74
2023/03/29 06:44:06;;;;;;;6.47;3.50;;;9.80;1.00;;;;;;4915550;29;20781;-74
2023/03/29 06:46:31;;;;;;;4.43;3.47;;;10.00;1.00;;;;;;4913490;29;20693;-74
2023/03/29 06:48:57;;;;;;;5.10;3.20;;;10.10;1.00;;;;;;4912839;29;20465;-74
2023/03/29 06:51:22;;;;;;;5.90;3.63;;;10.20;1.00;;;;;;4910466;29;20308;-74
2023/03/29 06:53:48;;;;;;;4.47;3.10;;;10.30;1.00;;;;;;4912539;29;20204;-72
2023/03/29 06:56:14;;;;;;;5.33;3.77;;;10.50;1.00;;;;;;4908064;29;20697;-74
2023/03/29 06:58:40;;;;;;;4.97;3.63;;;10.50;1.00;;;;;;4913046;29;20182;-74
2023/03/29 07:01:06;;;;;;;4.57;3.10;;;10.60;1.00;;;;;;4907464;29;20434;-73
2023/03/29 07:03:34;;;;;;;4.93;3.33;;;10.80;1.00;;;;;;4913692;29;20182;-73
2023/03/29 07:06:03;;;;;;;4.70;3.30;;;10.90;1.00;;;;;;4904865;29;20677;-73
2023/03/29 07:08:30;;;;;;;6.30;3.33;;;10.80;1.00;;;;;;4910169;29;20458;-73
2023/03/29 07:10:57;;;;;;;4.30;3.20;;;10.80;1.00;;;;;;4907117;29;20500;-72
2023/03/29 07:13:23;;;;;;;5.30;3.53;;;10.80;1.00;;;;;;4909846;29;20593;-73
2023/03/29 07:15:48;;;;;;;6.97;3.43;;;10.90;1.00;;;;;;4905484;29;20441;-73
2023/03/29 07:18:16;;;;;;;5.00;3.73;;;10.90;1.00;;;;;;4909619;29;20177;-73
2023/03/29 07:20:41;;;;;;;6.70;3.50;;;10.90;1.00;;;;;;4915791;29;20633;-73
2023/03/29 07:23:10;;;;;;;4.20;3.10;;;10.80;1.00;;;;;;4913098;29;20449;-73
2023/03/29 07:25:37;;;;;;;5.60;3.27;;;10.80;1.00;;;;;;4915606;29;20451;-74
2023/03/29 07:28:03;;;;;;;4.80;3.60;;;9.50;1.00;;;;;;4907886;29;20448;-72
2023/03/29 07:30:29;;;;;;;7.77;3.77;;;10.70;1.00;;;;;;4912289;29;20441;-73
2023/03/29 07:32:57;;;;;;;6.50;3.23;;;10.70;1.00;;;;;;4905895;29;20556;-73
2023/03/29 07:35:24;;;;;;;5.73;3.43;;;10.60;1.00;;;;;;4909924;29;20438;-73
2023/03/29 07:37:50;;;;;;;5.60;3.40;;;10.70;1.00;;;;;;4912481;29;20477;-73
2023/03/29 07:40:17;;;;;;;4.53;3.53;;;10.80;1.00;;;;;;4910672;29;20968;-72
2023/03/29 07:42:45;;;;;;;7.37;3.63;;;10.80;1.00;;;;;;4909052;29;20449;-73
2023/03/29 07:45:12;;;;;;;4.40;3.27;;;10.80;1.00;;;;;;4912201;29;20541;-73
2023/03/29 07:47:39;;;;;;;3.53;3.20;;;10.80;1.00;;;;;;4911504;29;20805;-72
2023/03/29 07:50:07;;;;;;;5.33;3.40;;;10.80;1.00;;;;;;4919402;29;20442;-73
2023/03/29 07:52:34;;;;;;;10.63;3.90;;;10.90;1.00;;;;;;4911458;29;20528;-73
2023/03/29 07:54:59;;;;;;;4.80;3.80;;;11.00;1.00;;;;;;4911669;29;20452;-73
2023/03/29 07:57:25;;;;;;;4.00;3.40;;;11.00;1.00;;;;;;4910256;29;20473;-73
2023/03/29 07:59:51;;;;;;;4.97;3.40;;;11.00;1.00;;;;;;4912317;29;20181;-72
2023/03/29 08:02:18;;;;;;;14.47;4.50;;;11.10;1.00;;;;;;4908341;29;20657;-72
2023/03/29 08:04:43;;;;;;;8.70;4.80;;;11.20;1.00;;;;;;4910627;29;20453;-72
2023/03/29 08:07:09;;;;;;;5.43;3.50;;;11.30;1.00;;;;;;4915802;29;20457;-72
2023/03/29 08:09:36;;;;;;;5.90;3.23;;;11.40;1.00;;;;;;4906396;29;20186;-72
2023/03/29 08:12:01;;;;;;;4.10;3.27;;;11.50;1.00;;;;;;4910287;29;21001;-73
2023/03/29 08:14:27;;;;;;;7.00;3.50;;;11.50;1.00;;;;;;4908907;29;20438;-72
2023/03/29 08:16:53;;;;;;;5.70;3.23;;;11.60;1.00;;;;;;4912844;29;20213;-72
2023/03/29 08:19:19;;;;;;;5.90;3.70;;;11.70;1.00;;;;;;4903600;29;20448;-72
2023/03/29 08:21:44;;;;;;;5.23;3.50;;;11.60;1.00;;;;;;4912154;29;20197;-72
2023/03/29 08:24:10;;;;;;;4.07;2.93;;;11.50;1.00;;;;;;4912072;29;20203;-72
2023/03/29 08:26:36;;;;;;;4.73;3.40;;;11.50;1.00;;;;;;4910177;29;20213;-73
2023/03/29 08:29:02;;;;;;;4.43;3.17;;;11.40;1.00;;;;;;4910765;29;20497;-73
2023/03/29 08:31:28;;;;;;;7.17;3.47;;;11.30;1.00;;;;;;4911729;29;20185;-72
2023/03/29 08:33:54;;;;;;;7.97;3.30;;;11.30;1.00;;;;;;4910099;29;20438;-72
2023/03/29 08:36:19;;;;;;;5.70;3.40;;;11.20;1.00;;;;;;4909774;29;20225;-72
2023/03/29 08:38:46;;;;;;;6.93;3.43;;;11.30;1.00;;;;;;4910555;29;20209;-72
2023/03/29 08:41:35;;;;;;;8.60;3.40;;;11.20;1.00;;;;;;4909700;29;20182;-72
2023/03/29 08:44:38;;;;;;;3.80;3.20;;;11.30;1.00;;;;;;4910084;29;22125;-73
2023/03/29 08:47:22;;;;;;;6.57;3.20;;;11.40;1.00;;;;;;4922694;29;20464;-73
2023/03/29 08:49:53;;;;;;;6.13;3.10;;;11.50;1.00;;;;;;4908581;29;20501;-72
2023/03/29 08:52:30;;;;;;;7.43;3.20;;;12.80;1.00;;;;;;4915016;29;20473;-70
2023/03/29 08:54:58;;;;;;;4.90;3.50;;;11.80;1.00;;;;;;4913046;29;20446;-72
2023/03/29 08:57:29;;;;;;;4.43;3.20;;;11.90;1.00;;;;;;4922750;29;20557;-72
2023/03/29 08:59:58;;;;;;;5.93;3.20;;;12.00;1.00;;;;;;4910358;29;20452;-72
2023/03/29 09:02:26;;;;;;;3.50;2.80;;;11.90;1.00;;;;;;4910639;29;20537;-72
2023/03/29 09:04:58;;;;;;;6.47;3.00;;;11.90;1.00;;;;;;4914756;29;20450;-72
2023/03/29 09:07:25;;;;;;;7.30;3.10;;;11.80;1.00;;;;;;4911366;29;20975;-73
2023/03/29 09:09:51;;;;;;;5.07;3.37;;;11.80;1.00;;;;;;4912169;29;20437;-73
2023/03/29 09:13:01;;;;;;;7.60;3.33;;;11.80;1.00;;;;;;4912822;29;20442;-72
2023/03/29 09:15:37;;;;;;;5.73;3.60;;;11.80;1.00;;;;;;4896151;29;20193;-72
2023/03/29 09:18:23;;;;;;;3.13;2.83;;;11.90;1.00;;;;;;4915321;29;21880;-73
2023/03/29 09:21:10;;;;;;;3.97;2.70;;;12.00;1.00;;;;;;4913737;29;20516;-72
2023/03/29 09:23:48;;;;;;;3.90;2.43;;;12.40;1.00;;;;;;4931216;29;20472;-72
2023/03/29 09:26:40;;;;;;;5.00;2.77;;;12.70;1.00;;;;;;4913055;29;20484;-73
2023/03/29 09:29:24;;;;;;;4.83;2.80;;;13.00;1.00;;;;;;4911889;29;20821;-72
2023/03/29 09:31:50;;;;;;;6.97;3.10;;;13.40;1.00;;;;;;4915280;29;21031;-72
2023/03/29 09:34:19;;;;;;;7.93;2.70;;;13.90;1.00;;;;;;4915481;29;20437;-72
2023/03/29 09:36:51;;;;;;;5.73;2.97;;;14.20;1.00;;;;;;4914374;29;20829;-73
2023/03/29 09:39:19;;;;;;;4.93;3.20;;;14.70;1.00;;;;;;4914588;29;20485;-73
2023/03/29 09:41:55;;;;;;;8.53;3.20;;;15.60;1.00;;;;;;4914590;29;20477;-74
2023/03/29 09:44:24;;;;;;;3.70;2.80;;;16.60;1.00;;;;;;4921376;29;20970;-72
2023/03/29 09:46:56;;;;;;;4.67;2.93;;;17.60;1.00;;;;;;4913863;29;20473;-72
2023/03/29 09:49:33;;;;;;;5.30;3.50;;;17.70;1.00;;;;;;4929388;29;20448;-73
2023/03/29 09:52:04;;;;;;;7.73;3.63;;;17.50;1.00;;;;;;4914448;29;20445;-72
2023/03/29 09:54:30;;;;;;;5.63;3.17;;;17.40;1.00;;;;;;4909888;29;20445;-74
2023/03/29 09:56:58;;;;;;;5.00;3.30;;;17.30;1.00;;;;;;4913080;29;20478;-74
2023/03/29 09:59:23;;;;;;;5.00;3.40;;;17.40;1.00;;;;;;4914457;29;20464;-72
2023/03/29 10:01:49;;;;;;;8.80;3.40;;;17.00;1.00;;;;;;4915099;29;20853;-73
2023/03/29 10:04:15;;;;;;;4.63;2.70;;;16.30;1.00;;;;;;4928826;29;20181;-74
2023/03/29 10:06:50;;;;;;;4.03;3.03;;;16.10;1.00;;;;;;4908058;29;20228;-72
2023/03/29 10:09:21;;;;;;;4.40;3.10;;;15.90;1.00;;;;;;4910929;29;20445;-73
2023/03/29 10:11:53;;;;;;;3.80;3.27;;;15.90;1.00;;;;;;4914268;29;20453;-73
2023/03/29 10:14:42;;;;;;;5.00;3.20;;;15.90;1.00;;;;;;4929774;29;20805;-73
2023/03/29 10:17:26;;;;;;;4.40;3.03;;;15.80;1.00;;;;;;4907499;29;20466;-72
2023/03/29 10:19:56;;;;;;;7.40;3.23;;;16.00;1.00;;;;;;4901370;29;20437;-72
2023/03/29 10:22:30;;;;;;;7.40;2.90;;;16.50;1.00;;;;;;4911196;29;20441;-72
2023/03/29 10:24:56;;;;;;;5.50;3.67;;;17.00;1.00;;;;;;4912012;29;20538;-72
2023/03/29 10:27:31;;;;;;;4.60;3.30;;;16.80;1.00;;;;;;4908461;29;20479;-72
2023/03/29 10:29:59;;;;;;;6.50;3.60;;;16.20;1.00;;;;;;4902424;29;20436;-72
2023/03/29 10:32:32;;;;;;;5.73;2.80;;;16.30;1.00;;;;;;4913737;29;20980;-72
2023/03/29 10:35:18;;;;;;;4.47;3.20;;;16.30;1.00;;;;;;4914020;29;20816;-73
2023/03/29 10:37:48;;;;;;;4.90;3.40;;;16.90;1.00;;;;;;4911552;29;20552;-73
2023/03/29 10:40:29;;;;;;;5.10;3.50;;;17.30;1.00;;;;;;4910457;29;20446;-72
2023/03/29 10:43:11;;;;;;;5.73;3.60;;;17.40;1.00;;;;;;4911796;29;20826;-73
2023/03/29 10:45:38;;;;;;;7.43;4.17;;;17.90;1.00;;;;;;4910349;29;21780;-75
2023/03/29 10:48:06;;;;;;;6.33;3.80;;;18.30;1.00;;;;;;4908296;29;20998;-72
2023/03/29 10:50:34;;;;;;;5.67;3.70;;;18.20;1.00;;;;;;4912929;29;20481;-72
2023/03/29 10:53:01;;;;;;;5.23;3.70;;;19.30;1.00;;;;;;4913290;29;20448;-74
2023/03/29 10:55:59;;;;;;;8.30;3.90;;;20.70;1.00;;;;;;4911771;29;20441;-73
2023/03/29 10:59:02;;;;;;;9.10;3.60;;;20.90;1.00;;;;;;4907775;29;20466;-74
2023/03/29 11:02:26;;;;;;;5.63;3.60;;;21.10;1.00;;;;;;4909999;29;20473;-73
2023/03/29 11:05:12;;;;;;;7.87;4.20;;;21.60;1.00;;;;;;4883772;29;20520;-72
2023/03/29 11:07:54;;;;;;;5.53;3.70;;;21.90;1.00;;;;;;4912536;29;21442;-72
2023/03/29 11:10:35;;;;;;;6.90;4.13;;;22.80;1.00;;;;;;4910632;29;20584;-72
2023/03/29 11:13:13;;;;;;;5.97;3.50;;;24.70;1.00;;;;;;4924386;29;20449;-73
2023/03/29 11:15:57;;;;;;;7.17;3.57;;;25.40;1.00;;;;;;4915467;29;20452;-72
2023/03/29 11:19:00;;;;;;;7.40;3.60;;;25.40;1.00;;;;;;4906805;29;20527;-73
2023/03/29 11:22:01;;;;;;;6.27;3.70;;;25.90;1.00;;;;;;4908172;29;20533;-73
2023/03/29 11:24:38;;;;;;;8.53;3.73;;;27.20;1.00;;;;;;4907693;29;20564;-74
2023/03/29 11:27:28;;;;;;;4.70;3.30;;;28.90;1.00;;;;;;4912847;29;20472;-74
2023/03/29 11:30:05;;;;;;;4.60;3.27;;;29.00;1.00;;;;;;4903790;29;20193;-74
2023/03/29 11:33:03;;;;;;;4.27;3.10;;;29.80;1.00;;;;;;4911644;29;20177;-75
2023/03/29 11:35:45;;;;;;;6.65;3.50;;;30.90;1.00;;;;;;4909529;29;20221;-74
2023/03/29 11:38:21;;;;;;;4.82;3.30;;;31.90;1.00;;;;;;4908973;29;20196;-75
2023/03/29 11:41:09;;;;;;;5.68;2.80;;;31.90;1.00;;;;;;4905741;29;20279;-75
2023/03/29 11:43:41;;;;;;;4.40;3.10;;;31.00;1.00;;;;;;4912654;29;20593;-74
2023/03/29 11:46:11;;;;;;;5.80;3.50;;;29.10;1.00;;;;;;4912323;29;20568;-74
2023/03/29 11:48:51;;;;;;;5.23;3.17;;;26.80;1.00;;;;;;4912091;29;20221;-74
2023/03/29 11:51:22;;;;;;;4.90;3.30;;;24.80;1.00;;;;;;4912778;29;20211;-72
2023/03/29 11:53:55;;;;;;;4.03;2.70;;;23.90;1.00;;;;;;4913919;29;20524;-73
2023/03/29 11:56:38;;;;;;;6.50;3.47;;;23.20;1.00;;;;;;4912634;29;20979;-74
2023/03/29 11:59:19;;;;;;;4.70;3.40;;;23.00;1.00;;;;;;4913287;29;20520;-74
2023/03/29 12:01:51;;;;;;;7.40;3.60;;;23.30;1.00;;;;;;4911728;29;20452;-73
2023/03/29 12:04:23;;;;;;;8.87;3.33;;;24.40;1.00;;;;;;4911892;29;20428;-74
2023/03/29 12:07:13;;;;;;;5.63;3.03;;;24.80;1.00;;;;;;4907785;29;20999;-73
2023/03/29 12:09:45;;;;;;;4.20;3.17;;;25.30;1.00;;;;;;4909021;29;20445;-74
2023/03/29 12:12:26;;;;;;;7.47;3.70;;;24.90;1.00;;;;;;4910945;29;20534;-74
2023/03/29 12:15:05;;;;;;;8.03;3.70;;;23.70;1.00;;;;;;4911777;29;20883;-73
2023/03/29 12:17:38;;;;;;;5.07;3.30;;;22.60;1.00;;;;;;4909833;29;20485;-73
2023/03/29 12:20:19;;;;;;;5.30;3.30;;;22.40;1.00;;;;;;4918454;29;20436;-73
2023/03/29 12:22:47;;;;;;;6.73;3.23;;;22.10;1.00;;;;;;4911707;29;20441;-74
2023/03/29 12:25:17;;;;;;;12.33;3.60;;;22.10;1.00;;;;;;4912063;29;20497;-74
2023/03/29 12:28:12;;;;;;;5.83;3.70;;;22.40;1.00;;;;;;4909528;29;20504;-74
2023/03/29 12:31:00;;;;;;;8.37;3.17;;;22.10;1.00;;;;;;4909636;29;20475;-73
2023/03/29 12:33:40;;;;;;;4.27;3.20;;;23.30;1.00;;;;;;4907709;29;20452;-74
2023/03/29 12:36:11;;;;;;;5.13;3.00;;;26.90;1.00;;;;;;4908586;29;20837;-73
2023/03/29 12:38:37;;;;;;;4.50;3.23;;;26.90;1.00;;;;;;4926639;29;20904;-74
2023/03/29 12:41:21;;;;;;;4.90;3.03;;;28.20;1.00;;;;;;4913199;29;20445;-73
2023/03/29 12:43:48;;;;;;;5.30;3.33;;;27.80;1.00;;;;;;4911826;29;20520;-73
2023/03/29 12:46:17;;;;;;;6.03;3.20;;;28.50;1.00;;;;;;4910535;29;20672;-73
2023/03/29 12:48:46;;;;;;;5.50;3.10;;;28.30;1.00;;;;;;4912508;29;20284;-74
2023/03/29 12:51:19;;;;;;;5.33;2.87;;;29.10;1.00;;;;;;4912244;29;20189;-74
2023/03/29 12:53:50;;;;;;;4.87;3.00;;;28.50;1.00;;;;;;4912179;29;20679;-75
2023/03/29 12:56:18;;;;;;;4.20;2.70;;;27.80;1.00;;;;;;4911601;29;20213;-74
2023/03/29 12:58:44;;;;;;;3.70;2.80;;;27.20;1.00;;;;;;4922083;29;20283;-74
2023/03/29 13:01:23;;;;;;;6.93;3.20;;;25.60;1.00;;;;;;4924440;29;20496;-74
2023/03/29 13:03:54;;;;;;;4.77;2.90;;;23.40;1.00;;;;;;4913530;29;20180;-74
2023/03/29 13:06:32;;;;;;;5.43;3.03;;;22.30;1.00;;;;;;4913800;29;20465;-73
2023/03/29 13:09:21;;;;;;;4.40;3.20;;;21.90;1.00;;;;;;4904055;29;20804;-74
2023/03/29 13:12:03;;;;;;;4.07;2.83;;;21.60;1.00;;;;;;4920605;29;20472;-74
2023/03/29 13:14:33;;;;;;;6.20;3.40;;;21.30;1.00;;;;;;4911359;29;20433;-73
2023/03/29 13:17:06;;;;;;;5.23;2.90;;;21.00;1.00;;;;;;4904208;29;21135;-74
2023/03/29 13:19:49;;;;;;;4.90;3.47;;;20.90;1.00;;;;;;4911306;29;21821;-73
2023/03/29 13:22:37;;;;;;;7.73;3.00;;;20.30;1.00;;;;;;4921269;29;20449;-73
2023/03/29 13:25:35;;;;;;;7.53;3.53;;;20.70;1.00;;;;;;4913946;29;20445;-74